createdAt,value
2019-06-07T00:00:29.832Z,99.99
2019-06-07T00:01:09.542Z,99.99
2019-06-07T00:02:10.380Z,99.99
2019-06-07T00:03:13.875Z,99.99
2019-06-07T00:04:10.338Z,99.99
2019-06-07T00:05:10.052Z,99.99
2019-06-07T00:06:13.040Z,99.99
2019-06-07T00:07:10.273Z,99.99
2019-06-07T00:08:17.153Z,99.99
2019-06-07T00:09:10.493Z,99.99
2019-06-07T00:10:10.051Z,99.99
2019-06-07T00:11:11.090Z,99.99
2019-06-07T00:12:10.655Z,99.99
2019-06-07T00:13:09.763Z,99.99
2019-06-07T00:14:11.160Z,99.99
2019-06-07T00:15:11.684Z,99.99
2019-06-07T00:16:11.222Z,99.99
2019-06-07T00:17:12.494Z,99.99
2019-06-07T00:18:11.189Z,99.99
2019-06-07T00:19:09.651Z,99.99
2019-06-07T00:20:13.419Z,99.99
2019-06-07T00:21:10.027Z,99.99
2019-06-07T00:22:23.763Z,99.99
2019-06-07T00:23:11.364Z,99.99
2019-06-07T00:24:12.653Z,99.99
2019-06-07T00:25:12.408Z,99.99
2019-06-07T00:26:10.737Z,99.99
2019-06-07T00:27:10.195Z,99.99
2019-06-07T00:28:09.026Z,99.99
2019-06-07T00:29:09.309Z,99.99
2019-06-07T00:30:32.765Z,99.99
2019-06-07T00:31:09.095Z,99.99
2019-06-07T00:32:09.314Z,99.99
2019-06-07T00:33:10.977Z,99.99
2019-06-07T00:34:10.728Z,99.99
2019-06-07T00:35:09.271Z,99.99
2019-06-07T00:36:10.092Z,99.99
2019-06-07T00:37:11.186Z,99.99
2019-06-07T00:38:09.400Z,99.99
2019-06-07T00:39:10.660Z,99.99
2019-06-07T00:40:17.367Z,99.99
2019-06-07T00:41:10.046Z,99.99
2019-06-07T00:42:10.769Z,99.99
2019-06-07T00:43:13.372Z,99.99
2019-06-07T00:44:10.166Z,99.99
2019-06-07T00:45:10.929Z,99.99
2019-06-07T00:46:12.845Z,99.99
2019-06-07T00:47:09.058Z,99.99
2019-06-07T00:48:09.062Z,99.99
2019-06-07T00:49:09.054Z,99.99
2019-06-07T00:50:09.060Z,99.99
2019-06-07T00:51:09.060Z,99.99
2019-06-07T00:52:09.067Z,99.99
2019-06-07T00:53:16.819Z,99.99
2019-06-07T00:54:09.065Z,99.99
2019-06-07T00:55:09.071Z,99.99
2019-06-07T00:56:09.074Z,99.99
2019-06-07T00:57:09.070Z,99.99
2019-06-07T00:58:09.076Z,99.99
2019-06-07T00:59:11.625Z,99.99
2019-06-07T01:00:09.072Z,99.99
2019-06-07T01:01:09.078Z,99.99
2019-06-07T01:02:09.086Z,99.99
2019-06-07T01:03:09.081Z,99.99
2019-06-07T01:04:09.089Z,99.99
2019-06-07T01:05:09.082Z,99.99
2019-06-07T01:06:09.089Z,99.99
2019-06-07T01:07:09.090Z,99.99
2019-06-07T01:08:09.090Z,99.99
2019-06-07T01:09:09.096Z,99.99
2019-06-07T01:10:09.093Z,99.99
2019-06-07T01:11:09.114Z,99.99
2019-06-07T01:12:09.097Z,99.99
2019-06-07T01:13:09.097Z,99.99
2019-06-07T01:14:09.098Z,99.99
2019-06-07T01:15:09.100Z,99.99
2019-06-07T01:16:09.106Z,99.99
2019-06-07T01:17:23.598Z,99.99
2019-06-07T01:18:36.032Z,99.99
2019-06-07T01:19:09.104Z,99.99
2019-06-07T01:20:09.106Z,99.99
2019-06-07T01:21:09.113Z,99.99
2019-06-07T01:22:09.108Z,99.99
2019-06-07T01:23:51.970Z,99.99
2019-06-07T01:24:12.324Z,99.99
2019-06-07T01:25:09.115Z,99.99
2019-06-07T01:26:09.117Z,99.99
2019-06-07T01:27:09.130Z,99.99
2019-06-07T01:28:09.124Z,99.99
2019-06-07T01:29:09.124Z,99.99
2019-06-07T01:30:09.121Z,99.99
2019-06-07T01:31:09.124Z,99.99
2019-06-07T01:32:09.126Z,99.99
2019-06-07T01:33:09.127Z,99.99
2019-06-07T01:34:09.127Z,99.99
2019-06-07T01:35:09.133Z,99.99
2019-06-07T01:36:09.134Z,99.99
2019-06-07T01:37:09.132Z,99.99
2019-06-07T01:38:09.138Z,99.99
2019-06-07T01:39:09.140Z,99.99
2019-06-07T01:40:09.199Z,99.99
2019-06-07T01:41:09.138Z,99.99
2019-06-07T01:42:09.140Z,99.99
2019-06-07T01:43:09.140Z,99.99
2019-06-07T01:44:09.149Z,99.99
2019-06-07T01:45:09.160Z,99.99
2019-06-07T01:46:09.143Z,99.99
2019-06-07T01:47:09.148Z,99.99
2019-06-07T01:48:09.151Z,99.99
2019-06-07T01:49:09.148Z,99.99
2019-06-07T01:50:09.153Z,99.99
2019-06-07T01:51:09.155Z,99.99
2019-06-07T01:52:09.157Z,99.99
2019-06-07T01:53:09.157Z,99.99
2019-06-07T01:55:09.161Z,99.99
2019-06-07T01:56:09.164Z,99.99
2019-06-07T01:57:30.502Z,99.99
2019-06-07T01:58:09.163Z,99.99
2019-06-07T01:59:09.171Z,99.99
2019-06-07T02:00:09.189Z,99.99
2019-06-07T02:01:09.167Z,99.99
2019-06-07T02:02:09.172Z,99.99
2019-06-07T02:03:09.174Z,99.99
2019-06-07T02:04:09.173Z,99.99
2019-06-07T02:05:09.174Z,99.99
2019-06-07T02:06:09.175Z,99.99
2019-06-07T02:07:09.180Z,99.99
2019-06-07T02:08:09.176Z,99.99
2019-06-07T02:09:09.176Z,99.99
2019-06-07T02:10:09.182Z,99.99
2019-06-07T02:11:09.180Z,99.99
2019-06-07T02:12:25.133Z,99.99
2019-06-07T02:13:09.187Z,99.99
2019-06-07T02:14:09.185Z,99.99
2019-06-07T02:15:09.197Z,99.99
2019-06-07T02:16:09.188Z,99.99
2019-06-07T02:17:09.230Z,99.99
2019-06-07T02:18:09.197Z,99.99
2019-06-07T02:19:09.196Z,99.99
2019-06-07T02:20:09.202Z,99.99
2019-06-07T02:21:09.198Z,99.99
2019-06-07T02:22:09.196Z,99.99
2019-06-07T02:23:09.198Z,99.99
2019-06-07T02:24:09.246Z,99.99
2019-06-07T02:26:09.205Z,99.99
2019-06-07T02:27:09.209Z,99.99
2019-06-07T02:28:27.554Z,99.99
2019-06-07T02:29:09.214Z,99.99
2019-06-07T02:30:36.977Z,99.99
2019-06-07T02:31:09.222Z,99.99
2019-06-07T02:32:09.220Z,99.99
2019-06-07T02:33:09.213Z,99.99
2019-06-07T02:34:09.226Z,99.99
2019-06-07T02:35:09.219Z,99.99
2019-06-07T02:36:09.215Z,99.99
2019-06-07T02:37:09.217Z,99.99
2019-06-07T02:38:09.222Z,99.99
2019-06-07T02:39:09.232Z,99.99
2019-06-07T02:40:09.245Z,99.99
2019-06-07T02:41:09.226Z,99.99
2019-06-07T02:42:09.251Z,99.99
2019-06-07T02:43:09.237Z,99.99
2019-06-07T02:44:09.245Z,99.99
2019-06-07T02:45:10.838Z,99.99
2019-06-07T02:46:25.372Z,99.99
2019-06-07T02:47:09.230Z,99.99
2019-06-07T02:48:09.242Z,99.99
2019-06-07T02:49:09.239Z,99.99
2019-06-07T02:50:09.238Z,99.99
2019-06-07T02:51:09.243Z,99.99
2019-06-07T02:52:09.242Z,99.99
2019-06-07T02:53:09.245Z,99.99
2019-06-07T02:54:09.244Z,99.99
2019-06-07T02:55:09.255Z,99.99
2019-06-07T02:56:37.758Z,99.99
2019-06-07T02:57:09.250Z,99.99
2019-06-07T02:58:09.253Z,99.99
2019-06-07T02:59:09.251Z,99.99
2019-06-07T03:00:40.398Z,99.99
2019-06-07T03:01:10.086Z,99.99
2019-06-07T03:02:09.252Z,99.99
2019-06-07T03:03:09.254Z,99.99
2019-06-07T03:04:09.258Z,99.99
2019-06-07T03:05:09.255Z,99.99
2019-06-07T03:06:09.266Z,99.99
2019-06-07T03:07:09.263Z,99.99
2019-06-07T03:08:09.261Z,99.99
2019-06-07T03:09:09.295Z,99.99
2019-06-07T03:10:09.261Z,99.99
2019-06-07T03:11:09.273Z,99.99
2019-06-07T03:12:09.268Z,99.99
2019-06-07T03:13:09.267Z,99.99
2019-06-07T03:14:09.271Z,99.99
2019-06-07T03:15:09.274Z,99.99
2019-06-07T03:16:09.282Z,99.99
2019-06-07T03:17:09.274Z,99.99
2019-06-07T03:18:09.274Z,99.99
2019-06-07T03:19:09.282Z,99.99
2019-06-07T03:20:09.281Z,99.99
2019-06-07T03:21:09.278Z,99.99
2019-06-07T03:22:09.281Z,99.99
2019-06-07T03:23:09.312Z,99.99
2019-06-07T03:24:09.279Z,99.99
2019-06-07T03:25:09.287Z,99.99
2019-06-07T03:26:09.282Z,99.99
2019-06-07T03:28:09.287Z,99.99
2019-06-07T03:29:09.293Z,99.99
2019-06-07T03:30:36.199Z,99.99
2019-06-07T03:31:09.294Z,99.99
2019-06-07T03:32:09.294Z,99.99
2019-06-07T03:33:09.294Z,99.99
2019-06-07T03:34:09.328Z,99.99
2019-06-07T03:35:09.298Z,99.99
2019-06-07T03:36:23.295Z,99.99
2019-06-07T03:37:09.305Z,99.99
2019-06-07T03:38:09.301Z,99.99
2019-06-07T03:39:09.305Z,99.99
2019-06-07T03:40:09.306Z,99.99
2019-06-07T03:41:09.307Z,99.99
2019-06-07T03:42:09.309Z,99.99
2019-06-07T03:43:09.306Z,99.99
2019-06-07T03:44:09.315Z,99.99
2019-06-07T03:45:09.315Z,99.99
2019-06-07T03:46:09.313Z,99.99
2019-06-07T03:47:09.332Z,99.99
2019-06-07T03:48:09.315Z,99.99
2019-06-07T03:49:09.316Z,99.99
2019-06-07T03:50:09.328Z,99.99
2019-06-07T03:51:24.218Z,99.99
2019-06-07T03:52:09.319Z,99.99
2019-06-07T03:53:09.320Z,99.99
2019-06-07T03:54:09.319Z,99.99
2019-06-07T03:55:09.321Z,99.99
2019-06-07T03:56:09.598Z,99.99
2019-06-07T03:57:09.327Z,99.99
2019-06-07T03:59:09.329Z,99.99
2019-06-07T04:00:09.327Z,99.99
2019-06-07T04:01:09.332Z,99.99
2019-06-07T04:02:09.333Z,99.99
2019-06-07T04:03:09.337Z,99.99
2019-06-07T04:04:09.339Z,99.99
2019-06-07T04:05:09.337Z,99.99
2019-06-07T04:06:09.343Z,99.99
2019-06-07T04:07:09.339Z,99.99
2019-06-07T04:08:09.341Z,99.99
2019-06-07T04:09:09.343Z,99.99
2019-06-07T04:10:09.342Z,99.99
2019-06-07T04:11:09.348Z,99.99
2019-06-07T04:12:09.348Z,99.99
2019-06-07T04:13:09.347Z,99.99
2019-06-07T04:14:09.350Z,99.99
2019-06-07T04:15:09.353Z,99.99
2019-06-07T04:16:09.382Z,99.99
2019-06-07T04:17:09.354Z,99.99
2019-06-07T04:18:09.353Z,99.99
2019-06-07T04:19:09.355Z,99.99
2019-06-07T04:20:09.358Z,99.99
2019-06-07T04:21:09.357Z,99.99
2019-06-07T04:22:09.395Z,99.99
2019-06-07T04:23:27.197Z,99.99
2019-06-07T04:24:09.366Z,99.99
2019-06-07T04:25:09.364Z,99.99
2019-06-07T04:26:09.363Z,99.99
2019-06-07T04:27:09.365Z,99.99
2019-06-07T04:28:09.362Z,99.99
2019-06-07T04:29:32.175Z,99.99
2019-06-07T04:30:09.374Z,99.99
2019-06-07T04:31:09.375Z,99.99
2019-06-07T04:32:09.377Z,99.99
2019-06-07T04:33:09.382Z,99.99
2019-06-07T04:34:09.378Z,99.99
2019-06-07T04:35:09.428Z,99.99
2019-06-07T04:36:09.378Z,99.99
2019-06-07T04:37:09.375Z,99.99
2019-06-07T04:38:09.384Z,99.99
2019-06-07T04:39:09.382Z,99.99
2019-06-07T04:40:09.381Z,99.99
2019-06-07T04:41:09.386Z,99.99
2019-06-07T04:42:09.386Z,99.99
2019-06-07T04:43:09.386Z,99.99
2019-06-07T04:44:09.392Z,99.99
2019-06-07T04:45:32.523Z,99.99
2019-06-07T04:46:09.395Z,99.99
2019-06-07T04:47:09.397Z,99.99
2019-06-07T04:48:09.402Z,99.99
2019-06-07T04:49:09.398Z,99.99
2019-06-07T04:50:09.395Z,99.99
2019-06-07T04:51:09.466Z,99.99
2019-06-07T04:52:09.401Z,99.99
2019-06-07T04:53:09.399Z,99.99
2019-06-07T04:54:09.401Z,99.99
2019-06-07T04:56:09.415Z,99.99
2019-06-07T04:57:09.406Z,99.99
2019-06-07T04:58:09.405Z,99.99
2019-06-07T04:59:09.411Z,99.99
2019-06-07T05:00:46.179Z,99.99
2019-06-07T05:01:26.206Z,99.99
2019-06-07T05:02:09.418Z,99.99
2019-06-07T05:03:09.471Z,99.99
2019-06-07T05:04:09.423Z,99.99
2019-06-07T05:05:10.314Z,99.99
2019-06-07T05:06:09.427Z,99.99
2019-06-07T05:07:09.421Z,99.99
2019-06-07T05:08:27.030Z,99.99
2019-06-07T05:09:09.420Z,99.99
2019-06-07T05:10:09.435Z,99.99
2019-06-07T05:11:09.432Z,99.99
2019-06-07T05:12:09.453Z,99.99
2019-06-07T05:13:09.430Z,99.99
2019-06-07T05:14:09.433Z,99.99
2019-06-07T05:15:09.436Z,99.99
2019-06-07T05:16:09.432Z,99.99
2019-06-07T05:17:09.437Z,99.99
2019-06-07T05:18:09.436Z,99.99
2019-06-07T05:19:09.441Z,99.99
2019-06-07T05:20:09.440Z,99.99
2019-06-07T05:21:09.451Z,99.99
2019-06-07T05:22:09.445Z,99.99
2019-06-07T05:23:09.441Z,99.99
2019-06-07T05:24:10.820Z,99.99
2019-06-07T05:25:09.452Z,99.99
2019-06-07T05:26:09.449Z,99.99
2019-06-07T05:27:09.457Z,99.99
2019-06-07T05:28:09.453Z,99.99
2019-06-07T05:29:09.454Z,99.99
2019-06-07T05:30:36.632Z,99.99
2019-06-07T05:31:09.468Z,99.99
2019-06-07T05:32:09.515Z,99.99
2019-06-07T05:33:09.454Z,99.99
2019-06-07T05:34:09.460Z,99.99
2019-06-07T05:35:09.482Z,99.99
2019-06-07T05:36:09.460Z,99.99
2019-06-07T05:37:12.092Z,99.99
2019-06-07T05:38:09.495Z,99.99
2019-06-07T05:39:09.464Z,99.99
2019-06-07T05:40:09.727Z,99.99
2019-06-07T05:41:09.470Z,99.99
2019-06-07T05:42:09.470Z,99.99
2019-06-07T05:43:09.470Z,99.99
2019-06-07T05:44:13.142Z,99.99
2019-06-07T05:45:09.474Z,99.99
2019-06-07T05:46:09.478Z,99.99
2019-06-07T05:47:09.476Z,99.99
2019-06-07T05:48:09.479Z,99.99
2019-06-07T05:49:09.477Z,99.99
2019-06-07T05:50:38.097Z,99.99
2019-06-07T05:51:09.482Z,99.99
2019-06-07T05:52:09.482Z,99.99
2019-06-07T05:53:09.491Z,99.99
2019-06-07T05:54:09.488Z,99.99
2019-06-07T05:55:09.511Z,99.99
2019-06-07T05:56:09.496Z,99.99
2019-06-07T05:57:09.494Z,99.99
2019-06-07T05:58:09.494Z,99.99
2019-06-07T05:59:09.521Z,99.99
2019-06-07T06:00:09.620Z,99.99
2019-06-07T06:02:22.259Z,99.99
2019-06-07T06:03:09.505Z,99.99
2019-06-07T06:04:09.502Z,99.99
2019-06-07T06:05:09.503Z,99.99
2019-06-07T06:06:09.508Z,99.99
2019-06-07T06:07:09.510Z,99.99
2019-06-07T06:08:09.510Z,99.99
2019-06-07T06:09:13.774Z,99.99
2019-06-07T06:10:09.514Z,99.99
2019-06-07T06:11:09.532Z,99.99
2019-06-07T06:12:09.521Z,99.99
2019-06-07T06:13:09.524Z,99.99
2019-06-07T06:14:09.562Z,99.99
2019-06-07T06:15:09.518Z,99.99
2019-06-07T06:16:09.522Z,99.99
2019-06-07T06:17:09.525Z,99.99
2019-06-07T06:18:09.528Z,99.99
2019-06-07T06:19:09.524Z,99.99
2019-06-07T06:20:09.528Z,99.99
2019-06-07T06:21:19.110Z,99.99
2019-06-07T06:22:09.530Z,99.99
2019-06-07T06:23:09.534Z,99.99
2019-06-07T06:24:09.541Z,99.99
2019-06-07T06:25:31.570Z,99.99
2019-06-07T06:26:09.538Z,99.99
2019-06-07T06:27:41.432Z,99.99
2019-06-07T06:28:12.409Z,99.99
2019-06-07T06:29:09.545Z,99.99
2019-06-07T06:30:09.545Z,99.99
2019-06-07T06:31:09.548Z,99.99
2019-06-07T06:32:41.259Z,99.99
2019-06-07T06:33:27.086Z,99.99
2019-06-07T06:34:09.555Z,99.99
2019-06-07T06:35:09.568Z,99.99
2019-06-07T06:36:09.555Z,99.99
2019-06-07T06:37:09.563Z,99.99
2019-06-07T06:38:09.563Z,99.99
2019-06-07T06:39:09.562Z,99.99
2019-06-07T06:40:09.566Z,99.99
2019-06-07T06:41:15.684Z,99.99
2019-06-07T06:42:09.569Z,99.99
2019-06-07T06:43:09.569Z,99.99
2019-06-07T06:44:09.577Z,99.99
2019-06-07T06:45:09.572Z,99.99
2019-06-07T06:46:09.571Z,99.99
2019-06-07T06:47:09.582Z,99.99
2019-06-07T06:48:09.578Z,99.99
2019-06-07T06:49:09.579Z,99.99
2019-06-07T06:50:09.579Z,99.99
2019-06-07T06:51:09.583Z,99.99
2019-06-07T06:52:09.589Z,99.99
2019-06-07T06:53:09.589Z,99.99
2019-06-07T06:54:09.593Z,99.99
2019-06-07T06:55:09.590Z,99.99
2019-06-07T06:56:09.601Z,99.99
2019-06-07T06:57:19.604Z,99.99
2019-06-07T06:58:09.595Z,99.99
2019-06-07T06:59:41.170Z,99.99
2019-06-07T07:00:09.603Z,99.99
2019-06-07T07:01:09.605Z,99.99
2019-06-07T07:02:09.605Z,99.99
2019-06-07T07:03:47.627Z,99.99
2019-06-07T07:04:12.937Z,99.99
2019-06-07T07:05:09.611Z,99.99
2019-06-07T07:06:25.353Z,99.99
2019-06-07T07:07:09.615Z,99.99
2019-06-07T07:08:09.624Z,99.99
2019-06-07T07:09:09.616Z,99.99
2019-06-07T07:10:09.678Z,99.99
2019-06-07T07:11:09.629Z,99.99
2019-06-07T07:12:12.707Z,99.26
2019-06-07T07:13:09.625Z,99.44
2019-06-07T07:14:09.627Z,98.19
2019-06-07T07:15:09.659Z,98.10
2019-06-07T07:16:09.644Z,97.71
2019-06-07T07:17:09.635Z,96.80
2019-06-07T07:18:09.648Z,97.19
2019-06-07T07:19:09.641Z,96.51
2019-06-07T07:20:09.646Z,96.70
2019-06-07T07:21:09.646Z,96.89
2019-06-07T07:22:09.652Z,97.38
2019-06-07T07:23:09.650Z,96.61
2019-06-07T07:24:21.259Z,94.64
2019-06-07T07:25:09.656Z,94.92
2019-06-07T07:26:09.657Z,94.64
2019-06-07T07:27:09.660Z,92.52
2019-06-07T07:28:09.662Z,92.85
2019-06-07T07:29:09.659Z,90.97
2019-06-07T07:30:36.222Z,90.01
2019-06-07T07:31:09.672Z,90.88
2019-06-07T07:32:09.679Z,89.15
2019-06-07T07:33:09.671Z,90.54
2019-06-07T07:34:34.653Z,90.40
2019-06-07T07:35:09.679Z,90.97
2019-06-07T07:36:28.064Z,88.85
2019-06-07T07:37:09.679Z,89.24
2019-06-07T07:38:09.685Z,88.47
2019-06-07T07:39:09.753Z,88.67
2019-06-07T07:40:55.524Z,88.67
2019-06-07T07:41:15.654Z,88.95
2019-06-07T07:42:20.835Z,88.38
2019-06-07T07:43:09.697Z,89.15
2019-06-07T07:44:10.021Z,87.51
2019-06-07T07:45:09.701Z,87.70
2019-06-07T07:46:28.631Z,90.11
2019-06-07T07:47:09.711Z,89.77
2019-06-07T07:48:17.651Z,89.58
2019-06-07T07:49:09.713Z,91.50
2019-06-07T07:50:09.717Z,89.48
2019-06-07T07:51:09.720Z,87.65
2019-06-07T07:52:09.724Z,88.32
2019-06-07T07:53:09.723Z,88.23
2019-06-07T07:54:11.111Z,88.04
2019-06-07T07:55:09.817Z,85.53
2019-06-07T07:56:09.745Z,88.23
2019-06-07T07:57:09.735Z,91.16
2019-06-07T07:58:09.744Z,89.33
2019-06-07T07:59:09.810Z,87.50
2019-06-07T08:00:48.529Z,87.98
2019-06-07T08:01:11.245Z,84.90
2019-06-07T08:02:09.749Z,83.94
2019-06-07T08:03:09.755Z,83.26
2019-06-07T08:04:09.764Z,82.29
2019-06-07T08:05:22.676Z,82.49
2019-06-07T08:06:09.759Z,81.47
2019-06-07T08:07:09.767Z,82.05
2019-06-07T08:08:09.765Z,82.72
2019-06-07T08:09:09.774Z,83.40
2019-06-07T08:10:09.772Z,82.82
2019-06-07T08:11:09.789Z,81.37
2019-06-07T08:12:09.777Z,82.43
2019-06-07T08:13:26.367Z,81.76
2019-06-07T08:14:09.782Z,82.57
2019-06-07T08:15:09.797Z,81.90
2019-06-07T08:16:16.126Z,82.09
2019-06-07T08:17:09.795Z,83.05
2019-06-07T08:18:09.873Z,85.75
2019-06-07T08:19:09.824Z,84.01
2019-06-07T08:20:09.807Z,81.51
2019-06-07T08:21:24.412Z,82.18
2019-06-07T08:22:09.811Z,83.15
2019-06-07T08:23:09.812Z,84.69
2019-06-07T08:24:09.817Z,83.92
2019-06-07T08:25:09.821Z,83.34
2019-06-07T08:26:09.824Z,83.58
2019-06-07T08:27:25.369Z,82.90
2019-06-07T08:28:09.828Z,80.87
2019-06-07T08:29:09.839Z,81.16
2019-06-07T08:30:46.403Z,82.23
2019-06-07T08:31:09.843Z,78.36
2019-06-07T08:32:09.842Z,77.98
2019-06-07T08:33:25.352Z,81.26
2019-06-07T08:34:09.902Z,80.43
2019-06-07T08:35:09.851Z,79.17
2019-06-07T08:36:19.995Z,76.86
2019-06-07T08:37:09.860Z,75.12
2019-06-07T08:38:29.810Z,75.18
2019-06-07T08:39:09.865Z,76.63
2019-06-07T08:40:09.874Z,77.98
2019-06-07T08:41:12.270Z,77.05
2019-06-07T08:42:17.601Z,76.82
2019-06-07T08:43:19.887Z,75.89
2019-06-07T08:44:22.923Z,77.11
2019-06-07T08:45:09.887Z,75.57
2019-06-07T08:46:09.940Z,76.76
2019-06-07T08:47:19.943Z,76.18
2019-06-07T08:48:27.007Z,76.37
2019-06-07T08:49:09.902Z,74.44
2019-06-07T08:50:09.907Z,72.42
2019-06-07T08:51:09.912Z,73.86
2019-06-07T08:52:12.176Z,74.38
2019-06-07T08:53:12.123Z,76.51
2019-06-07T08:54:22.177Z,75.84
2019-06-07T08:55:09.927Z,74.19
2019-06-07T08:56:11.392Z,74.29
2019-06-07T08:57:20.759Z,74.38
2019-06-07T08:58:09.934Z,77.00
2019-06-07T08:59:11.479Z,74.48
2019-06-07T09:00:42.353Z,75.16
2019-06-07T09:01:09.972Z,76.90
2019-06-07T09:02:22.874Z,74.87
2019-06-07T09:03:09.970Z,74.38
2019-06-07T09:04:11.279Z,74.96
2019-06-07T09:05:12.275Z,75.35
2019-06-07T09:06:53.872Z,75.93
2019-06-07T09:07:19.181Z,76.55
2019-06-07T09:08:28.689Z,75.45
2019-06-07T09:09:09.979Z,73.22
2019-06-07T09:10:14.117Z,72.84
2019-06-07T09:11:11.230Z,75.06
2019-06-07T09:12:11.233Z,74.87
2019-06-07T09:13:11.684Z,74.48
2019-06-07T09:14:09.999Z,77.86
2019-06-07T09:15:20.948Z,78.06
2019-06-07T09:16:10.369Z,74.10
2019-06-07T09:17:12.478Z,74.48
2019-06-07T09:18:38.017Z,74.48
2019-06-07T09:19:10.862Z,73.42
2019-06-07T09:20:33.890Z,73.90
2019-06-07T09:21:10.164Z,74.29
2019-06-07T09:22:11.475Z,73.61
2019-06-07T09:23:16.863Z,73.13
2019-06-07T09:24:11.597Z,72.84
2019-06-07T09:25:20.014Z,73.61
2019-06-07T09:26:17.658Z,73.13
2019-06-07T09:27:10.466Z,74.96
2019-06-07T09:28:18.704Z,73.03
2019-06-07T09:29:12.026Z,72.16
2019-06-07T09:30:16.301Z,72.06
2019-06-07T09:31:12.575Z,72.90
2019-06-07T09:32:15.692Z,72.32
2019-06-07T09:33:10.094Z,74.00
2019-06-07T09:34:14.322Z,73.80
2019-06-07T09:35:16.878Z,74.38
2019-06-07T09:36:12.989Z,74.29
2019-06-07T09:38:02.747Z,71.48
2019-06-07T09:38:23.629Z,72.16
2019-06-07T09:39:12.475Z,73.80
2019-06-07T09:40:21.649Z,75.16
2019-06-07T09:41:10.116Z,72.36
2019-06-07T09:42:12.565Z,73.19
2019-06-07T09:44:24.177Z,74.06
2019-06-07T09:45:13.778Z,73.38
2019-06-07T09:46:14.864Z,73.77
2019-06-07T09:47:30.230Z,74.44
2019-06-07T09:48:15.871Z,72.06
2019-06-07T09:49:19.146Z,72.16
2019-06-07T09:50:12.441Z,71.20
2019-06-07T09:51:19.214Z,72.45
2019-06-07T09:52:11.106Z,73.71
2019-06-07T09:53:22.007Z,76.51
2019-06-07T09:54:11.509Z,72.36
2019-06-07T09:55:22.783Z,73.65
2019-06-07T09:56:12.214Z,72.58
2019-06-07T09:57:16.707Z,74.46
2019-06-07T09:58:48.697Z,75.23
2019-06-07T09:59:12.823Z,74.55
2019-06-07T10:00:36.809Z,73.04
2019-06-07T10:01:13.492Z,72.85
2019-06-07T10:02:13.662Z,72.46
2019-06-07T10:03:20.594Z,69.50
2019-06-07T10:04:28.061Z,69.89
2019-06-07T10:05:13.971Z,69.85
2019-06-07T10:06:13.670Z,69.59
2019-06-07T10:07:28.600Z,70.18
2019-06-07T10:08:40.982Z,71.34
2019-06-07T10:11:10.253Z,70.60
2019-06-07T10:12:10.257Z,66.98
2019-06-07T10:13:10.432Z,68.91
2019-06-07T10:14:10.268Z,69.63
2019-06-07T10:15:10.270Z,65.24
2019-06-07T10:16:10.274Z,65.24
2019-06-07T10:17:10.287Z,65.92
2019-06-07T10:18:10.286Z,66.40
2019-06-07T10:19:10.336Z,66.11
2019-06-07T10:20:10.305Z,65.98
2019-06-07T10:21:14.791Z,67.14
2019-06-07T10:22:10.307Z,68.21
2019-06-07T10:23:10.314Z,65.82
2019-06-07T10:24:10.319Z,69.40
2019-06-07T10:25:10.694Z,68.15
2019-06-07T10:26:10.327Z,70.60
2019-06-07T10:27:10.337Z,67.60
2019-06-07T10:28:10.348Z,68.08
2019-06-07T10:29:10.417Z,66.47
2019-06-07T10:30:10.524Z,64.92
2019-06-07T10:31:11.437Z,66.66
2019-06-07T10:32:11.270Z,63.56
2019-06-07T10:33:10.520Z,64.82
2019-06-07T10:34:10.917Z,66.60
2019-06-07T10:35:15.302Z,68.82
2019-06-07T10:36:10.736Z,68.34
2019-06-07T10:37:15.003Z,67.79
2019-06-07T10:38:10.709Z,66.05
2019-06-07T10:39:11.404Z,66.05
2019-06-07T10:40:11.369Z,64.88
2019-06-07T10:41:11.109Z,63.82
2019-06-07T10:42:11.630Z,64.95
2019-06-07T10:43:14.270Z,63.88
2019-06-07T10:44:11.448Z,63.40
2019-06-07T10:45:12.278Z,64.37
2019-06-07T10:46:11.926Z,64.56
2019-06-07T10:47:12.129Z,63.27
2019-06-07T10:48:11.712Z,64.62
2019-06-07T10:49:10.468Z,65.11
2019-06-07T10:50:10.533Z,66.56
2019-06-07T10:51:12.425Z,65.59
2019-06-07T10:52:11.704Z,64.62
2019-06-07T10:53:10.834Z,64.14
2019-06-07T10:54:25.812Z,67.44
2019-06-07T10:55:10.663Z,64.62
2019-06-07T10:56:11.093Z,68.05
2019-06-07T10:57:12.909Z,65.20
2019-06-07T10:58:11.207Z,66.50
2019-06-07T10:59:11.930Z,66.50
2019-06-07T11:00:11.683Z,68.92
2019-06-07T11:01:12.838Z,65.53
2019-06-07T11:02:11.914Z,64.07
2019-06-07T11:03:11.815Z,63.98
2019-06-07T11:04:11.743Z,64.27
2019-06-07T11:05:12.130Z,63.88
2019-06-07T11:06:12.006Z,63.88
2019-06-07T11:07:10.581Z,63.65
2019-06-07T11:08:11.817Z,65.59
2019-06-07T11:09:10.594Z,65.01
2019-06-07T11:10:16.643Z,65.53
2019-06-07T11:11:10.609Z,63.98
2019-06-07T11:12:10.886Z,65.24
2019-06-07T11:13:10.620Z,64.85
2019-06-07T11:14:10.697Z,66.02
2019-06-07T11:15:11.086Z,67.08
2019-06-07T11:16:11.218Z,70.21
2019-06-07T11:17:11.347Z,69.93
2019-06-07T11:18:12.452Z,65.66
2019-06-07T11:19:15.354Z,62.95
2019-06-07T11:20:12.308Z,64.92
2019-06-07T11:21:10.678Z,66.37
2019-06-07T11:22:10.679Z,63.95
2019-06-07T11:23:10.690Z,63.23
2019-06-07T11:24:10.692Z,62.75
2019-06-07T11:25:11.170Z,62.16
2019-06-07T11:26:10.713Z,61.88
2019-06-07T11:27:11.690Z,65.27
2019-06-07T11:28:10.724Z,66.34
2019-06-07T11:29:10.979Z,65.27
2019-06-07T11:30:10.734Z,64.62
2019-06-07T11:31:11.206Z,63.75
2019-06-07T11:32:10.768Z,63.56
2019-06-07T11:33:12.329Z,65.30
2019-06-07T11:34:10.765Z,65.24
2019-06-07T11:35:11.912Z,63.10
2019-06-07T11:36:10.774Z,62.42
2019-06-07T11:37:11.614Z,64.17
2019-06-07T11:38:10.793Z,64.07
2019-06-07T11:39:11.162Z,63.13
2019-06-07T11:40:28.038Z,63.23
2019-06-07T11:41:11.574Z,63.71
2019-06-07T11:42:12.037Z,63.71
2019-06-07T11:43:10.866Z,63.42
2019-06-07T11:44:11.058Z,64.78
2019-06-07T11:45:12.825Z,61.97
2019-06-07T11:46:11.032Z,60.90
2019-06-07T11:47:12.391Z,61.58
2019-06-07T11:48:11.385Z,62.84
2019-06-07T11:49:11.343Z,63.52
2019-06-07T11:50:11.784Z,63.36
2019-06-07T11:51:10.972Z,61.71
2019-06-07T11:52:11.377Z,62.19
2019-06-07T11:53:10.906Z,60.54
2019-06-07T11:54:12.045Z,59.08
2019-06-07T11:55:11.553Z,60.15
2019-06-07T11:56:11.932Z,59.79
2019-06-07T11:57:10.967Z,60.79
2019-06-07T11:58:16.077Z,60.02
2019-06-07T11:59:11.223Z,59.46
2019-06-07T12:00:11.585Z,56.57
2019-06-07T12:01:11.850Z,57.51
2019-06-07T12:02:11.406Z,59.27
2019-06-07T12:03:11.596Z,55.60
2019-06-07T12:04:11.567Z,54.46
2019-06-07T12:05:14.613Z,53.34
2019-06-07T12:06:12.041Z,53.36
2019-06-07T12:07:13.616Z,51.92
2019-06-07T12:08:11.910Z,52.08
2019-06-07T12:09:12.341Z,50.27
2019-06-07T12:10:12.450Z,49.70
2019-06-07T12:11:12.126Z,48.46
2019-06-07T12:12:12.511Z,48.19
2019-06-07T12:13:12.487Z,47.72
2019-06-07T12:14:11.140Z,45.95
2019-06-07T12:15:11.184Z,46.64
2019-06-07T12:16:11.336Z,46.66
2019-06-07T12:17:11.361Z,48.25
2019-06-07T12:18:11.310Z,44.23
2019-06-07T12:19:11.800Z,44.43
2019-06-07T12:20:12.893Z,44.92
2019-06-07T12:21:11.543Z,44.70
2019-06-07T12:22:11.761Z,45.93
2019-06-07T12:23:12.014Z,45.72
2019-06-07T12:24:12.141Z,45.72
2019-06-07T12:25:12.505Z,47.63
2019-06-07T12:26:12.290Z,48.11
2019-06-07T12:27:12.768Z,49.07
2019-06-07T12:28:12.605Z,48.77
2019-06-07T12:29:12.547Z,49.09
2019-06-07T12:30:19.391Z,47.45
2019-06-07T12:31:11.419Z,47.89
2019-06-07T12:32:11.436Z,46.74
2019-06-07T12:33:11.451Z,46.17
2019-06-07T12:34:11.475Z,44.04
2019-06-07T12:35:11.635Z,44.74
2019-06-07T12:36:11.509Z,45.06
2019-06-07T12:37:11.758Z,42.21
2019-06-07T12:38:12.280Z,42.80
2019-06-07T12:39:11.886Z,43.08
2019-06-07T12:40:15.917Z,44.26
2019-06-07T12:41:12.029Z,43.27
2019-06-07T12:42:12.420Z,43.66
2019-06-07T12:43:12.374Z,44.26
2019-06-07T12:44:12.592Z,42.98
2019-06-07T12:45:12.937Z,42.88
2019-06-07T12:46:15.331Z,43.27
2019-06-07T12:47:12.760Z,43.66
2019-06-07T12:48:16.268Z,44.37
2019-06-07T12:49:12.879Z,44.40
2019-06-07T12:50:13.376Z,42.92
2019-06-07T12:51:13.066Z,42.06
2019-06-07T12:52:14.667Z,42.72
2019-06-07T12:53:11.834Z,43.24
2019-06-07T12:54:11.815Z,43.63
2019-06-07T12:55:11.827Z,44.69
2019-06-07T12:56:11.853Z,44.08
2019-06-07T12:57:11.862Z,43.69
2019-06-07T12:58:11.879Z,42.61
2019-06-07T12:59:11.898Z,42.39
2019-06-07T13:00:11.930Z,44.33
2019-06-07T13:01:11.929Z,45.90